Grelton, Ohio
Current Conditions -  °F | °C
As of 12:35 PM on Tuesday 21 Oct 2014 (Local Time) from KUSE Reporting Station
Overcast Overcast  
Wind Chill: 50°   Ceiling: 2800
Heat Index: 50°   Visibility: 10mi
Dew Point: 43°   Wind: 8mph
Humidity: 76%   Direction: 10°N
Pressure: 30.06"   Gusts: 17mph
Location:  41.34°N, 84°W
Report Text: KUSE 211635Z AUTO 01007G15KT 10SM SCT020 BKN028 OVC033 10/06 A3006 RMK AO2
Loading
Personal Weather Stations






























Interactive Weather Map
Tropical Storm Tracking
New forecast layout! Learn more

10-Day Weather Forecast

Advertisements
Track Severe Weather on mobile